Accueil
METAR-TAF:

METAR-TAF

Aéroports :

Avignon, France

Aéroport d'Avignon-Provence

latitude: 43-54-26N, longitude: 004-54-07E, altitude: 38 m

Observation

Le bulletin a été fait il y a 41 minutes, à 17:00 UTC
Vent 7 kt de sud
Température 21°C
Humidité 38%
Pression 1018 hPa
Visibilité 10 km ou plus
pas de nuages en-dessous de 1500 mètres et pas de cumulonimbus.

METAR: LFMV 211700Z AUTO 18007KT CAVOK 21/06 Q1018 TEMPO BKN014

Heure: 19:41 (17:41 UTC)

Prévision

Le bulletin a été fait il y a 3 heures et 41 minutes, à 14:00 UTC
Prévision valable du 21 à 15 UTC au 22 à 15 UTC
Vent 13 kt de sud
Visibilité 10 km ou plus
pas de nuages en-dessous de 1500 mètres et pas de cumulonimbus.
Temporairement
du 21 à 18 UTC au 22 à 09 UTC
Vent 3 kt de direction variable
Nuages fragmentés à une hauteur de 1400 ft

TAF: LFMV 211400Z 2115/2215 17013KT CAVOK TEMPO 2118/2209 VRB03KT BKN014

Observations et prévisions météorologiques de plus de 4000 aéroports (messages METAR et TAF).

Les stations disponibles sont représentées par des disques jaunes et rouges sur la carte.

Passer la souris dessus pour voir le nom de la station.

Cliquer dessus pour voir les observations et prévisions météorologiques.

Pour changer de carte: cliquez sur les boutons verts avec une croix noire pour zoomer, sur le bouton vert avec un tiret pour effectuer un zoom arrière, ou sur les flèches vertes pour les cartes adjacentes.


METAR-TAF: